Time;durP1;ratioP1;P1;durP2;ratioP2;P2;SDS_P1;SDS_P2;PMS_P1;PMS_P2;Temp;Humidity;BMP_temperature;BMP_pressure;BME280_temperature;BME280_humidity;BME280_pressure;Samples;Min_cycle;Max_cycle;Signal;HPM_P1;HPM_P2
2021/08/16 00:02:22;;;;;;;15.30;13.90;;;21.80;99.90;;;;;;9750073;30;20583;-82
2021/08/16 00:07:24;;;;;;;14.90;13.60;;;21.80;99.90;;;;;;9766742;30;20225;-81
2021/08/16 00:12:28;;;;;;;13.30;12.03;;;21.80;99.90;;;;;;9766446;30;20583;-82
2021/08/16 00:17:30;;;;;;;14.83;13.43;;;21.80;99.90;;;;;;9766131;30;20329;-82
2021/08/16 00:22:32;;;;;;;19.97;12.83;;;21.90;99.90;;;;;;9742843;30;20225;-82
2021/08/16 00:27:36;;;;;;;14.07;12.77;;;21.90;99.90;;;;;;9731221;30;20222;-83
2021/08/16 00:32:38;;;;;;;14.63;13.20;;;21.90;99.90;;;;;;9700872;30;20752;-82
2021/08/16 00:37:40;;;;;;;13.27;12.27;;;22.00;99.90;;;;;;9731925;30;20258;-83
2021/08/16 00:42:43;;;;;;;14.00;12.80;;;22.00;99.90;;;;;;9731799;30;20210;-82
2021/08/16 00:47:46;;;;;;;15.00;13.40;;;22.00;99.90;;;;;;9731087;30;20222;-81
2021/08/16 00:52:48;;;;;;;16.10;13.50;;;22.00;99.90;;;;;;9704386;30;20229;-83
2021/08/16 00:57:54;;;;;;;15.67;13.97;;;22.10;99.90;;;;;;9694144;30;20717;-82
2021/08/16 01:02:56;;;;;;;17.30;13.83;;;22.10;99.90;;;;;;9661717;30;20226;-82
2021/08/16 01:07:58;;;;;;;19.53;13.63;;;22.10;99.90;;;;;;9695271;30;20248;-81
2021/08/16 01:13:02;;;;;;;14.10;12.87;;;22.10;99.90;;;;;;9680580;30;20325;-82
2021/08/16 01:18:05;;;;;;;15.13;13.63;;;22.10;99.90;;;;;;9687699;30;20321;-81
2021/08/16 01:23:07;;;;;;;14.70;13.17;;;22.10;99.90;;;;;;9719780;30;20222;-82
2021/08/16 01:28:10;;;;;;;13.17;11.87;;;22.20;99.90;;;;;;9696144;30;20230;-81
2021/08/16 01:33:12;;;;;;;13.53;12.00;;;22.20;99.90;;;;;;9726610;30;20291;-82
2021/08/16 01:38:14;;;;;;;14.20;13.00;;;22.20;99.90;;;;;;9726505;30;20458;-82
2021/08/16 01:43:18;;;;;;;14.10;12.83;;;22.10;99.90;;;;;;9710294;30;20212;-82
2021/08/16 01:48:20;;;;;;;13.40;12.20;;;22.10;99.90;;;;;;9725810;30;20305;-82
2021/08/16 01:53:22;;;;;;;13.23;12.13;;;22.00;99.90;;;;;;9689175;30;20218;-81
2021/08/16 01:58:25;;;;;;;13.30;12.07;;;22.00;99.90;;;;;;9678492;30;20736;-82
2021/08/16 02:03:27;;;;;;;13.70;12.40;;;22.00;99.90;;;;;;9693931;30;20665;-80
2021/08/16 02:08:30;;;;;;;14.37;12.60;;;22.00;99.90;;;;;;9694292;30;20222;-82
2021/08/16 02:13:33;;;;;;;13.33;12.13;;;22.00;99.90;;;;;;9694190;30;20215;-81
2021/08/16 02:18:35;;;;;;;16.93;13.20;;;22.00;99.90;;;;;;9695245;30;20239;-82
2021/08/16 02:23:37;;;;;;;13.60;12.40;;;22.00;99.90;;;;;;9709823;30;20210;-82
2021/08/16 02:28:41;;;;;;;11.33;10.27;;;22.00;99.90;;;;;;9729943;30;20228;-82
2021/08/16 02:33:43;;;;;;;14.27;12.40;;;22.00;99.90;;;;;;9727947;30;20218;-82
2021/08/16 02:38:45;;;;;;;12.97;11.80;;;22.00;99.90;;;;;;9727811;30;20242;-81
2021/08/16 02:43:48;;;;;;;12.63;11.60;;;22.00;99.90;;;;;;9729028;30;20210;-82
2021/08/16 02:48:51;;;;;;;12.40;11.17;;;22.00;99.90;;;;;;9713549;30;20249;-82
2021/08/16 02:53:53;;;;;;;12.07;10.87;;;22.00;99.90;;;;;;9694829;30;20215;-81
2021/08/16 02:58:57;;;;;;;12.37;11.20;;;22.00;99.90;;;;;;9677311;30;20242;-81
2021/08/16 03:04:00;;;;;;;11.80;10.90;;;22.10;99.90;;;;;;9676779;30;20219;-82
2021/08/16 03:09:02;;;;;;;12.33;11.20;;;22.10;99.90;;;;;;9676904;30;20256;-82
2021/08/16 03:14:05;;;;;;;13.10;11.77;;;22.10;99.90;;;;;;9692779;30;20203;-81
2021/08/16 03:19:07;;;;;;;12.13;11.00;;;22.10;99.90;;;;;;9693083;30;20234;-82
2021/08/16 03:24:09;;;;;;;12.43;11.43;;;22.00;99.90;;;;;;9727270;30;20301;-82
2021/08/16 03:29:13;;;;;;;11.83;10.63;;;22.00;99.90;;;;;;9727508;30;20288;-81
2021/08/16 03:34:15;;;;;;;12.83;10.83;;;21.90;99.90;;;;;;9713394;30;20221;-82
2021/08/16 03:39:17;;;;;;;13.10;12.10;;;21.90;99.90;;;;;;9713274;30;20249;-82
2021/08/16 03:44:21;;;;;;;12.23;11.13;;;21.90;99.90;;;;;;9728875;30;20658;-82
2021/08/16 03:49:23;;;;;;;12.57;11.37;;;21.90;99.90;;;;;;9712338;30;20218;-82
2021/08/16 03:54:25;;;;;;;12.20;11.20;;;21.90;99.90;;;;;;9712702;30;20309;-82
2021/08/16 03:59:29;;;;;;;12.43;11.23;;;21.90;99.90;;;;;;9712947;30;20337;-82
2021/08/16 04:04:31;;;;;;;12.93;11.67;;;21.90;99.90;;;;;;9728019;30;20290;-81
2021/08/16 04:09:33;;;;;;;11.40;10.40;;;21.90;99.90;;;;;;9727959;30;20226;-82
2021/08/16 04:14:36;;;;;;;12.90;11.60;;;21.90;99.90;;;;;;9712674;30;20617;-82
2021/08/16 04:19:39;;;;;;;13.13;12.03;;;21.90;99.90;;;;;;9728630;30;20612;-81
2021/08/16 04:24:41;;;;;;;13.67;12.47;;;21.90;99.90;;;;;;9712307;30;20580;-83
2021/08/16 04:29:44;;;;;;;13.93;12.60;;;21.80;99.90;;;;;;9712972;30;20226;-82
2021/08/16 04:34:46;;;;;;;13.27;12.17;;;21.80;99.90;;;;;;9729007;30;20619;-81
2021/08/16 04:39:48;;;;;;;12.17;11.23;;;21.80;99.90;;;;;;9713082;30;20683;-82
2021/08/16 04:44:52;;;;;;;12.40;11.33;;;21.70;99.90;;;;;;9729373;30;20677;-82
2021/08/16 04:49:56;;;;;;;11.47;10.57;;;21.80;99.90;;;;;;9713473;30;20242;-82
2021/08/16 04:54:58;;;;;;;11.63;10.40;;;21.80;99.90;;;;;;9715115;30;20206;-81
2021/08/16 05:00:02;;;;;;;12.27;11.17;;;21.80;99.90;;;;;;9732097;30;20238;-82
2021/08/16 05:05:08;;;;;;;13.80;10.60;;;21.80;99.90;;;;;;9730736;30;20205;-82
2021/08/16 05:10:11;;;;;;;10.93;9.97;;;21.90;99.90;;;;;;9714893;30;20225;-81
2021/08/16 05:15:14;;;;;;;10.33;9.43;;;21.90;99.90;;;;;;9714642;30;20210;-82
2021/08/16 05:20:17;;;;;;;8.50;7.80;;;21.90;99.90;;;;;;9730718;30;20329;-82
2021/08/16 05:25:20;;;;;;;9.97;9.07;;;22.00;99.90;;;;;;9731227;30;20706;-82
2021/08/16 05:30:23;;;;;;;9.43;8.43;;;22.00;99.90;;;;;;9733340;30;20222;-82
2021/08/16 05:35:26;;;;;;;8.37;7.47;;;22.00;99.90;;;;;;9722869;30;20222;-82
2021/08/16 05:40:28;;;;;;;8.57;7.67;;;22.00;99.90;;;;;;9777242;24;20241;-83
2021/08/16 05:45:32;;;;;;;8.60;7.77;;;22.00;99.90;;;;;;9770715;30;20264;-82
2021/08/16 05:50:34;;;;;;;11.07;8.20;;;22.10;99.90;;;;;;9734731;30;20232;-82
2021/08/16 05:55:36;;;;;;;7.57;6.97;;;22.10;99.90;;;;;;9735898;30;20210;-82
2021/08/16 06:00:40;;;;;;;8.00;7.40;;;22.10;99.90;;;;;;9736641;30;20242;-82
2021/08/16 06:05:45;;;;;;;9.93;7.33;;;22.20;99.90;;;;;;9721918;30;20213;-81
2021/08/16 06:10:47;;;;;;;8.80;7.90;;;22.30;99.90;;;;;;9732622;30;20234;-82
2021/08/16 06:15:50;;;;;;;8.07;7.30;;;22.30;99.90;;;;;;9721515;30;20272;-81
2021/08/16 06:20:54;;;;;;;7.87;7.17;;;22.40;99.90;;;;;;9711631;30;20331;-81
2021/08/16 06:26:04;;;;;;;8.47;6.07;;;22.40;99.90;;;;;;9703407;30;20231;-81
2021/08/16 06:31:12;;;;;;;7.60;6.90;;;22.40;99.90;;;;;;9684105;30;20716;-81
2021/08/16 06:36:17;;;;;;;7.13;6.47;;;22.40;99.90;;;;;;9697313;30;20226;-81
2021/08/16 06:41:19;;;;;;;7.10;6.50;;;22.40;99.90;;;;;;9700988;30;20265;-81
2021/08/16 06:46:23;;;;;;;10.23;6.83;;;22.40;99.90;;;;;;9687346;30;20806;-81
2021/08/16 06:51:25;;;;;;;8.47;7.57;;;22.30;99.90;;;;;;9674076;30;20253;-81
2021/08/16 06:56:27;;;;;;;7.97;7.20;;;22.30;99.90;;;;;;9703995;30;20289;-81
2021/08/16 07:01:31;;;;;;;6.73;6.23;;;22.50;99.90;;;;;;9691156;30;20689;-81
2021/08/16 07:06:33;;;;;;;6.77;6.07;;;22.50;99.90;;;;;;9707581;30;20274;-81
2021/08/16 07:11:35;;;;;;;6.10;5.60;;;22.60;99.90;;;;;;9695068;30;20218;-81
2021/08/16 07:16:38;;;;;;;6.17;5.57;;;22.70;99.90;;;;;;9710006;30;20249;-81
2021/08/16 07:21:43;;;;;;;6.73;6.03;;;22.80;99.90;;;;;;9744379;30;20273;-81
2021/08/16 07:26:45;;;;;;;5.23;4.83;;;22.90;99.90;;;;;;9728918;30;20656;-82
2021/08/16 07:31:48;;;;;;;5.83;5.23;;;23.00;99.90;;;;;;9730703;30;20618;-81
2021/08/16 07:36:53;;;;;;;6.00;5.40;;;23.00;99.90;;;;;;9730414;30;20301;-81
2021/08/16 07:41:56;;;;;;;5.60;5.10;;;23.10;99.90;;;;;;9718046;30;20280;-81
2021/08/16 07:46:59;;;;;;;6.73;5.23;;;23.30;99.90;;;;;;9728663;30;20682;-81
2021/08/16 07:52:02;;;;;;;5.30;4.87;;;23.50;99.90;;;;;;9718053;30;20226;-81
2021/08/16 07:57:07;;;;;;;5.40;5.00;;;23.60;99.90;;;;;;9717091;30;20214;-81
2021/08/16 08:02:10;;;;;;;5.57;5.00;;;23.80;99.90;;;;;;9732433;30;20268;-81
2021/08/16 08:07:22;;;;;;;7.90;5.03;;;23.90;99.90;;;;;;9703073;30;20214;-81
2021/08/16 08:12:27;;;;;;;8.50;5.20;;;24.10;99.90;;;;;;9716872;30;20250;-81
2021/08/16 08:17:33;;;;;;;4.90;4.50;;;24.20;99.90;;;;;;9732868;30;20216;-81
2021/08/16 08:22:38;;;;;;;4.83;4.43;;;24.30;99.90;;;;;;9730052;30;20233;-81
2021/08/16 08:27:40;;;;;;;5.50;4.70;;;24.20;99.90;;;;;;9700473;30;20659;-81
2021/08/16 08:32:48;;;;;;;5.73;5.23;;;24.20;99.90;;;;;;9732126;30;20627;-82
2021/08/16 08:37:54;;;;;;;4.90;4.50;;;24.30;99.90;;;;;;9731595;30;20679;-82
2021/08/16 08:42:56;;;;;;;6.73;6.13;;;24.50;99.90;;;;;;9718672;30;20265;-82
2021/08/16 08:47:59;;;;;;;6.23;5.63;;;24.60;99.90;;;;;;9704198;30;20297;-82
2021/08/16 08:53:05;;;;;;;6.27;5.73;;;24.60;99.90;;;;;;9734708;30;20190;-82
2021/08/16 08:58:23;;;;;;;7.33;5.43;;;24.80;99.90;;;;;;9704535;30;20230;-82
2021/08/16 09:03:29;;;;;;;5.73;5.20;;;25.00;99.90;;;;;;9736313;30;20205;-82
2021/08/16 09:08:35;;;;;;;6.70;6.10;;;25.30;99.90;;;;;;9711893;30;20246;-82
2021/08/16 09:13:51;;;;;;;6.57;6.07;;;25.30;99.90;;;;;;9703100;30;20673;-81
2021/08/16 09:19:11;;;;;;;5.97;5.47;;;25.30;99.90;;;;;;9676340;30;20300;-81
2021/08/16 09:24:18;;;;;;;6.50;5.90;;;25.20;99.90;;;;;;9691916;30;20225;-81
2021/08/16 09:29:23;;;;;;;6.27;5.67;;;25.30;99.90;;;;;;9692328;30;20284;-82
2021/08/16 09:34:36;;;;;;;6.90;5.97;;;25.50;99.90;;;;;;9709065;30;20229;-82
2021/08/16 09:39:43;;;;;;;6.67;5.20;;;25.60;99.90;;;;;;9691824;30;20245;-82
2021/08/16 09:44:53;;;;;;;6.30;5.33;;;25.50;99.90;;;;;;9695698;30;20217;-82
2021/08/16 09:50:06;;;;;;;6.40;5.90;;;25.30;99.90;;;;;;9707788;30;20227;-82
2021/08/16 09:55:09;;;;;;;6.83;5.40;;;25.10;99.90;;;;;;9729238;30;20210;-82
2021/08/16 10:00:12;;;;;;;5.73;5.23;;;24.70;99.90;;;;;;9735099;30;20811;-82
2021/08/16 10:05:15;;;;;;;8.83;6.07;;;24.50;99.90;;;;;;9721483;30;20207;-81
2021/08/16 10:10:21;;;;;;;6.73;6.03;;;24.40;99.90;;;;;;9716807;30;20607;-81
2021/08/16 10:15:23;;;;;;;6.10;4.40;;;24.30;99.90;;;;;;9741835;30;20271;-81
2021/08/16 10:20:30;;;;;;;5.83;4.80;;;24.60;99.90;;;;;;9784224;30;20597;-81
2021/08/16 10:25:32;;;;;;;5.47;4.80;;;24.80;99.90;;;;;;9752425;30;20237;-81
2021/08/16 10:30:45;;;;;;;7.87;4.67;;;24.90;99.90;;;;;;9768538;30;20228;-81
2021/08/16 10:35:49;;;;;;;4.80;4.30;;;24.80;99.90;;;;;;9768645;30;20974;-81
2021/08/16 10:40:52;;;;;;;5.70;5.20;;;25.00;99.90;;;;;;9728373;30;20268;-81
2021/08/16 10:45:54;;;;;;;5.70;5.13;;;25.00;99.90;;;;;;9727554;30;20218;-82
2021/08/16 10:51:06;;;;;;;6.37;5.03;;;25.00;99.90;;;;;;9688010;30;20294;-82
2021/08/16 10:56:16;;;;;;;4.67;4.23;;;24.80;99.90;;;;;;9688415;30;20566;-81
2021/08/16 11:01:26;;;;;;;5.23;4.50;;;24.80;99.90;;;;;;9688162;30;20293;-81
2021/08/16 11:06:30;;;;;;;5.30;4.20;;;24.70;99.90;;;;;;9689407;30;20215;-81
2021/08/16 11:11:35;;;;;;;5.87;4.20;;;24.70;99.90;;;;;;9687815;30;20242;-81
2021/08/16 11:16:47;;;;;;;4.97;4.20;;;24.70;99.90;;;;;;9673515;30;20225;-81
2021/08/16 11:21:58;;;;;;;5.70;4.40;;;24.60;99.20;;;;;;9705214;30;20238;-81
2021/08/16 11:27:01;;;;;;;5.40;4.40;;;24.40;99.90;;;;;;9672744;30;20255;-81
2021/08/16 11:32:05;;;;;;;5.60;5.10;;;24.30;98.70;;;;;;9672841;30;20676;-81
2021/08/16 11:37:12;;;;;;;5.43;4.67;;;24.20;99.90;;;;;;9694948;30;20241;-81
2021/08/16 11:42:14;;;;;;;8.10;4.47;;;24.10;99.90;;;;;;9718853;25;20603;-82
2021/08/16 11:47:16;;;;;;;5.43;4.10;;;24.20;99.90;;;;;;9728997;30;20232;-83
2021/08/16 11:52:27;;;;;;;6.57;4.63;;;24.40;99.90;;;;;;10522650;27;20518;-82
2021/08/16 11:57:29;;;;;;;4.80;4.17;;;24.60;99.90;;;;;;10456670;28;20272;-82
2021/08/16 12:02:35;;;;;;;6.40;3.93;;;24.50;99.90;;;;;;10449954;28;20288;-82
2021/08/16 12:07:38;;;;;;;9.73;4.13;;;24.30;99.90;;;;;;10447168;28;20197;-82
2021/08/16 12:12:42;;;;;;;4.53;4.13;;;24.20;99.50;;;;;;10489706;28;20799;-81
2021/08/16 12:17:45;;;;;;;5.00;4.60;;;24.20;99.90;;;;;;10479670;28;20289;-81
2021/08/16 12:22:53;;;;;;;6.27;4.23;;;24.30;99.00;;;;;;10476322;28;20676;-81
2021/08/16 12:27:56;;;;;;;4.93;4.53;;;24.40;98.80;;;;;;10462283;28;20217;-81
2021/08/16 12:33:07;;;;;;;5.37;4.87;;;24.50;96.70;;;;;;10437955;28;20288;-81
2021/08/16 12:38:10;;;;;;;4.80;4.00;;;24.30;98.50;;;;;;10455323;28;20197;-81
2021/08/16 12:43:12;;;;;;;6.43;3.87;;;24.10;98.00;;;;;;10461566;28;20209;-81
2021/08/16 12:48:14;;;;;;;4.50;3.90;;;24.10;96.20;;;;;;10495954;28;20246;-81
2021/08/16 12:53:18;;;;;;;5.90;4.37;;;24.10;96.50;;;;;;10478567;28;20692;-81
2021/08/16 12:58:20;;;;;;;6.30;4.50;;;24.00;96.90;;;;;;10509547;28;20242;-81
2021/08/16 13:03:22;;;;;;;4.23;3.93;;;24.00;97.50;;;;;;10470802;28;20362;-81
2021/08/16 13:08:25;;;;;;;6.13;4.43;;;24.20;97.20;;;;;;10468179;28;20259;-81
2021/08/16 13:13:28;;;;;;;4.10;3.70;;;24.30;96.70;;;;;;10467030;28;20213;-81
2021/08/16 13:18:30;;;;;;;4.70;4.17;;;24.40;97.30;;;;;;10466699;28;20216;-81
2021/08/16 13:23:34;;;;;;;5.33;4.23;;;24.40;97.80;;;;;;10467797;28;20228;-81
2021/08/16 13:28:36;;;;;;;4.47;4.07;;;24.40;98.70;;;;;;10464541;28;20221;-81
2021/08/16 13:33:39;;;;;;;6.43;4.70;;;24.40;99.10;;;;;;10464338;28;20221;-81
2021/08/16 13:38:42;;;;;;;5.00;4.60;;;24.40;97.60;;;;;;10460788;28;20216;-81
2021/08/16 13:43:44;;;;;;;5.30;4.17;;;24.40;95.50;;;;;;10466346;28;20600;-80
2021/08/16 13:48:47;;;;;;;4.87;4.37;;;24.30;95.00;;;;;;10480121;28;20221;-81
2021/08/16 13:53:50;;;;;;;4.80;3.80;;;24.30;95.00;;;;;;10451726;28;20252;-81
2021/08/16 13:58:52;;;;;;;4.70;3.97;;;24.30;94.10;;;;;;10437118;28;20194;-81
2021/08/16 14:03:54;;;;;;;5.40;4.13;;;24.30;92.90;;;;;;10421883;28;20328;-81
2021/08/16 14:08:58;;;;;;;4.87;4.30;;;24.30;92.10;;;;;;10424807;28;20269;-81
2021/08/16 14:14:00;;;;;;;4.47;4.07;;;24.20;92.40;;;;;;10436285;28;20240;-81
2021/08/16 14:19:02;;;;;;;4.10;3.77;;;24.10;94.20;;;;;;10466271;28;20608;-81
2021/08/16 14:24:06;;;;;;;4.17;3.87;;;23.90;93.90;;;;;;10406818;28;20218;-81
2021/08/16 14:29:09;;;;;;;4.33;3.93;;;23.80;98.40;;;;;;10427967;28;20309;-81
2021/08/16 14:34:11;;;;;;;5.23;3.67;;;23.70;94.50;;;;;;10428711;28;20251;-79
2021/08/16 14:39:14;;;;;;;6.67;3.90;;;24.00;93.50;;;;;;10460332;28;20220;-80
2021/08/16 14:44:17;;;;;;;4.07;3.60;;;24.20;95.60;;;;;;10471129;28;20276;-80
2021/08/16 14:49:19;;;;;;;5.00;4.20;;;24.20;92.90;;;;;;10467454;28;20608;-81
2021/08/16 14:54:22;;;;;;;2.87;2.63;;;24.20;92.10;;;;;;10479338;28;20217;-81
2021/08/16 14:59:24;;;;;;;7.13;4.00;;;24.20;93.90;;;;;;10463042;28;20268;-81
2021/08/16 15:04:27;;;;;;;5.17;4.20;;;24.30;94.40;;;;;;10478235;28;20275;-81
2021/08/16 15:09:30;;;;;;;4.13;3.33;;;24.20;93.10;;;;;;10478736;28;20213;-81
2021/08/16 15:14:32;;;;;;;4.73;3.90;;;24.20;96.90;;;;;;10478601;28;20253;-81
2021/08/16 15:19:34;;;;;;;4.83;3.70;;;24.20;95.10;;;;;;10463934;28;20268;-81
2021/08/16 15:24:38;;;;;;;4.13;3.70;;;24.10;94.20;;;;;;10480206;28;20213;-80
2021/08/16 15:29:46;;;;;;;3.77;3.40;;;24.10;94.10;;;;;;10464225;28;20340;-80
2021/08/16 15:34:48;;;;;;;4.53;3.80;;;24.10;94.10;;;;;;10470308;28;20220;-81
2021/08/16 15:39:52;;;;;;;4.23;3.83;;;24.00;97.60;;;;;;10440620;28;20195;-81
2021/08/16 15:44:54;;;;;;;4.10;3.70;;;24.00;91.70;;;;;;10461963;28;20224;-81
2021/08/16 15:49:56;;;;;;;3.93;3.63;;;23.90;94.60;;;;;;10460540;28;20244;-81
2021/08/16 15:54:59;;;;;;;4.83;3.27;;;23.90;92.10;;;;;;10461511;28;20288;-81
2021/08/16 16:00:02;;;;;;;3.50;3.20;;;23.90;93.40;;;;;;10462126;28;20596;-81
2021/08/16 16:05:14;;;;;;;3.63;3.33;;;23.90;95.70;;;;;;10461905;28;20209;-81
2021/08/16 16:10:17;;;;;;;4.90;3.50;;;23.90;92.00;;;;;;10479312;28;20248;-81
2021/08/16 16:15:19;;;;;;;3.80;3.40;;;23.90;93.40;;;;;;10461787;28;20237;-81
2021/08/16 16:20:21;;;;;;;4.13;3.17;;;23.90;93.70;;;;;;10461251;28;20197;-81
2021/08/16 16:25:26;;;;;;;6.07;3.60;;;23.80;93.00;;;;;;10461688;28;20209;-81
2021/08/16 16:30:29;;;;;;;3.20;2.93;;;23.60;91.70;;;;;;10460055;28;20702;-81
2021/08/16 16:35:34;;;;;;;5.00;3.17;;;23.50;93.80;;;;;;10492873;28;20733;-81
2021/08/16 16:40:38;;;;;;;3.73;3.33;;;23.50;93.60;;;;;;10469897;28;20185;-81
2021/08/16 16:45:41;;;;;;;5.50;3.70;;;23.40;92.70;;;;;;10467216;28;20758;-81
2021/08/16 16:50:43;;;;;;;4.43;3.27;;;23.40;96.60;;;;;;10466577;28;20264;-81
2021/08/16 16:55:46;;;;;;;2.57;2.37;;;23.40;95.80;;;;;;10467024;28;20225;-81
2021/08/16 17:00:48;;;;;;;3.00;2.80;;;23.30;95.60;;;;;;10467761;28;20192;-81
2021/08/16 17:05:50;;;;;;;3.80;2.87;;;23.20;93.90;;;;;;10467531;28;20288;-81
2021/08/16 17:10:54;;;;;;;2.90;2.70;;;23.10;93.80;;;;;;10453557;28;20221;-81
2021/08/16 17:15:56;;;;;;;7.73;2.90;;;23.10;92.80;;;;;;10478383;28;20251;-81
2021/08/16 17:20:58;;;;;;;3.40;3.10;;;23.00;93.50;;;;;;10478504;28;20201;-80
2021/08/16 17:26:02;;;;;;;2.87;2.67;;;22.90;94.10;;;;;;10460523;28;20749;-81
2021/08/16 17:31:04;;;;;;;2.77;2.50;;;22.80;95.50;;;;;;10408728;28;20228;-81
2021/08/16 17:36:07;;;;;;;2.40;2.20;;;22.60;95.50;;;;;;10425173;28;20234;-81
2021/08/16 17:41:11;;;;;;;2.70;2.50;;;22.50;95.20;;;;;;10423708;28;20735;-81
2021/08/16 17:46:13;;;;;;;2.67;2.47;;;22.50;95.50;;;;;;10469897;22;20225;-81
2021/08/16 17:51:15;;;;;;;2.83;2.63;;;22.50;96.00;;;;;;10450859;28;20225;-81
2021/08/16 17:56:18;;;;;;;3.37;3.07;;;22.40;96.60;;;;;;10435749;28;20592;-81
2021/08/16 18:01:20;;;;;;;3.47;2.90;;;22.30;98.20;;;;;;10452966;28;20193;-81
2021/08/16 18:06:23;;;;;;;3.80;2.60;;;22.30;95.90;;;;;;10438131;28;20213;-81
2021/08/16 18:11:26;;;;;;;5.17;2.63;;;22.20;95.70;;;;;;10431122;28;20225;-82
2021/08/16 18:16:29;;;;;;;3.23;2.93;;;22.10;96.50;;;;;;10429471;28;20244;-82
2021/08/16 18:21:33;;;;;;;2.90;2.70;;;22.10;97.00;;;;;;10468016;28;20193;-81
2021/08/16 18:26:37;;;;;;;3.17;2.60;;;22.00;96.80;;;;;;10446496;28;20581;-81
2021/08/16 18:31:39;;;;;;;2.80;2.63;;;22.00;97.90;;;;;;10442290;28;20217;-82
2021/08/16 18:36:41;;;;;;;2.73;2.47;;;22.00;99.30;;;;;;10428442;28;20294;-82
2021/08/16 18:41:49;;;;;;;3.63;2.63;;;22.00;95.40;;;;;;10444667;28;20189;-82
2021/08/16 18:46:51;;;;;;;2.50;2.37;;;21.90;97.40;;;;;;10450171;28;20236;-82
2021/08/16 18:51:53;;;;;;;3.30;3.00;;;21.90;96.00;;;;;;10438274;28;20239;-82
2021/08/16 18:56:57;;;;;;;4.47;2.77;;;21.80;99.80;;;;;;10459989;28;20247;-82
2021/08/16 19:01:59;;;;;;;2.20;2.00;;;21.80;98.40;;;;;;10477190;28;20277;-82
2021/08/16 19:07:01;;;;;;;2.80;2.60;;;21.80;95.60;;;;;;10455930;28;20217;-82
2021/08/16 19:12:08;;;;;;;3.47;2.20;;;21.80;99.60;;;;;;10457555;28;20252;-83
2021/08/16 19:17:10;;;;;;;3.20;2.60;;;21.80;99.90;;;;;;10474382;28;20616;-82
2021/08/16 19:22:12;;;;;;;2.80;2.60;;;21.60;99.90;;;;;;10456387;28;20226;-81
2021/08/16 19:27:16;;;;;;;3.10;2.90;;;21.30;99.90;;;;;;10439063;28;20241;-83
2021/08/16 19:32:18;;;;;;;2.93;2.67;;;21.00;99.90;;;;;;10437991;28;20232;-82
2021/08/16 19:37:21;;;;;;;4.37;3.70;;;20.80;99.90;;;;;;10472118;28;20835;-82
2021/08/16 19:42:27;;;;;;;4.43;3.70;;;20.70;99.90;;;;;;10455588;28;20190;-81
2021/08/16 19:47:31;;;;;;;5.63;5.13;;;20.40;99.90;;;;;;10443359;28;20292;-82
2021/08/16 19:52:35;;;;;;;8.43;7.63;;;20.10;99.90;;;;;;10460490;28;20284;-81
2021/08/16 19:57:40;;;;;;;11.97;10.77;;;19.80;99.90;;;;;;10447631;28;20270;-82
2021/08/16 20:08:06;;;;;;;15.57;13.23;;;19.20;99.90;;;;;;10448045;28;20201;-83
2021/08/16 20:13:20;;;;;;;16.17;14.30;;;18.90;99.90;;;;;;10435223;28;20281;-83
2021/08/16 20:18:22;;;;;;;18.60;15.90;;;18.80;99.90;;;;;;10438987;28;20208;-83
2021/08/16 20:23:24;;;;;;;18.63;16.50;;;18.60;99.90;;;;;;10439232;28;20561;-83
2021/08/16 20:28:28;;;;;;;19.40;16.77;;;18.60;99.90;;;;;;10445222;28;20216;-84
2021/08/16 20:33:32;;;;;;;21.43;17.63;;;18.60;99.90;;;;;;10473630;28;20296;-83
2021/08/16 20:38:35;;;;;;;18.43;16.53;;;18.60;99.90;;;;;;10450417;28;20369;-83
2021/08/16 20:43:49;;;;;;;19.97;17.93;;;18.60;99.90;;;;;;10445055;28;20201;-83
2021/08/16 20:48:53;;;;;;;20.63;18.53;;;18.60;99.90;;;;;;10419851;28;20229;-83
2021/08/16 20:59:25;;;;;;;22.90;18.07;;;18.60;99.90;;;;;;10415969;28;20248;-83
2021/08/16 21:04:29;;;;;;;22.83;20.10;;;18.60;99.90;;;;;;10433805;28;20204;-81
2021/08/16 21:09:32;;;;;;;25.20;19.60;;;18.50;99.90;;;;;;10443006;28;20696;-83
2021/08/16 21:14:35;;;;;;;20.97;18.67;;;18.50;99.90;;;;;;10425853;28;20292;-82
2021/08/16 21:19:37;;;;;;;20.70;18.63;;;18.40;99.90;;;;;;10442505;28;20217;-83
2021/08/16 21:24:40;;;;;;;20.43;18.43;;;18.30;99.90;;;;;;10441418;28;20213;-83
2021/08/16 21:29:47;;;;;;;21.70;19.03;;;18.20;99.90;;;;;;10431336;28;20217;-83
2021/08/16 21:40:45;;;;;;;21.60;17.87;;;18.20;99.90;;;;;;10667646;27;20527;-82
2021/08/16 21:45:47;;;;;;;21.07;18.87;;;18.30;99.90;;;;;;10634717;27;20715;-81
2021/08/16 21:50:49;;;;;;;20.53;17.70;;;18.30;99.90;;;;;;10607950;28;20195;-81
2021/08/16 21:55:52;;;;;;;27.13;24.20;;;18.30;99.90;;;;;;10592101;27;20589;-82
2021/08/16 22:00:56;;;;;;;22.70;19.13;;;18.30;99.90;;;;;;10613307;27;20560;-80
2021/08/16 22:05:58;;;;;;;21.53;19.23;;;18.30;99.90;;;;;;10624113;27;20231;-81
2021/08/16 22:11:02;;;;;;;25.17;19.50;;;18.20;99.90;;;;;;10610341;28;20226;-81
2021/08/16 22:16:05;;;;;;;23.57;21.27;;;18.20;99.90;;;;;;10625812;28;20317;-81
2021/08/16 22:21:08;;;;;;;22.47;19.33;;;18.20;99.90;;;;;;10622425;28;20898;-81
2021/08/16 22:26:12;;;;;;;18.73;16.57;;;18.10;99.90;;;;;;10624860;28;20307;-81
2021/08/16 22:31:15;;;;;;;10.63;9.63;;;18.00;99.90;;;;;;10626148;28;20750;-83
2021/08/16 22:36:17;;;;;;;9.60;8.90;;;17.60;99.90;;;;;;10616056;28;20222;-81
2021/08/16 22:41:20;;;;;;;7.73;7.13;;;17.20;99.90;;;;;;10618012;28;20191;-81
2021/08/16 22:46:23;;;;;;;7.60;7.00;;;16.90;99.90;;;;;;10635865;28;20210;-81
2021/08/16 22:51:25;;;;;;;7.27;6.57;;;16.60;99.90;;;;;;10593984;28;20265;-82
2021/08/16 22:56:28;;;;;;;7.23;6.60;;;16.50;99.90;;;;;;10595791;28;20249;-82
2021/08/16 23:01:31;;;;;;;6.90;6.40;;;16.40;99.90;;;;;;10601135;27;20224;-83
2021/08/16 23:06:34;;;;;;;7.17;6.53;;;16.40;99.90;;;;;;10599898;27;20207;-83
2021/08/16 23:11:37;;;;;;;7.43;6.83;;;16.40;99.90;;;;;;10633065;27;20686;-82
2021/08/16 23:16:40;;;;;;;7.90;7.10;;;16.30;99.90;;;;;;10642603;27;20234;-83
2021/08/16 23:21:42;;;;;;;6.57;5.97;;;16.30;99.90;;;;;;10571977;28;20711;-82
2021/08/16 23:26:46;;;;;;;8.70;7.80;;;16.30;99.90;;;;;;10605138;28;20576;-83
2021/08/16 23:31:48;;;;;;;8.27;7.47;;;16.20;99.90;;;;;;10606952;28;20187;-84
2021/08/16 23:36:50;;;;;;;8.07;6.83;;;16.30;99.90;;;;;;10592340;28;20275;-83
2021/08/16 23:41:54;;;;;;;7.23;6.63;;;16.30;99.90;;;;;;10611985;28;20221;-83
2021/08/16 23:47:05;;;;;;;8.67;7.20;;;16.30;99.90;;;;;;10593432;22;20231;-85
2021/08/16 23:52:10;;;;;;;9.63;6.97;;;16.20;99.90;;;;;;10587614;28;20191;-86
2021/08/16 23:57:13;;;;;;;7.83;6.87;;;16.20;99.90;;;;;;10551917;28;20211;-86
